KEED/EED METAR and TAF weather

Enter ICAO airport designator
Station Type Date Time Source
KEED METAR 2020/07/10 15:56 UTC NOAA

KEED 101556Z AUTO 07005KT 10SM CLR 36/06 A2995 RMK AO2 SLP101 T03560056


Station Type Date Time Source
KEED Decoded METAR 2020/07/10 15:56 UTC NOAA

NEEDLES AIRPORT, CA, United States (KEED) 34-46N 114-37W
Jul 10, 2020 - 11:56 AM EDT / 2020.07.10 1556 UTC
Wind: from the ENE (070 degrees) at 6 MPH (5 KT):0
Visibility: 10 mile(s):0
Sky conditions: clear
Temperature: 96.1 F (35.6 C)
Dew Point: 42.1 F (5.6 C)
Relative Humidity: 15%
Pressure (altimeter): 29.95 in. Hg (1014 hPa)
ob: KEED 101556Z AUTO 07005KT 10SM CLR 36/06 A2995 RMK AO2 SLP101 T03560056
cycle: 16

Station Type Date Time Source
KEED TAF 2020/07/10 12:22 UTC NOAA

TAF KEED 101120Z 1012/1112 VRB05KT P6SM SCT250
FM101800 18012G20KT P6SM BKN200
FM110300 23007KT P6SM SCT200

Example: see airport list